Time;durP1;ratioP1;P1;durP2;ratioP2;P2;SDS_P1;SDS_P2;PMS_P1;PMS_P2;Temp;Humidity;BMP_temperature;BMP_pressure;BME280_temperature;BME280_humidity;BME280_pressure;Samples;Min_cycle;Max_cycle;Signal;HPM_P1;HPM_P2
2021/03/16 00:01:05;;;;;;;11.05;3.45;;;10.50;81.90;;;;;;4977335;28;20043;-80
2021/03/16 00:03:32;;;;;;;12.38;3.00;;;10.50;81.80;;;;;;4961299;28;20066;-79
2021/03/16 00:05:58;;;;;;;10.70;2.55;;;10.50;81.30;;;;;;4961096;28;20034;-79
2021/03/16 00:08:24;;;;;;;12.32;3.30;;;10.50;81.00;;;;;;4977745;28;20495;-80
2021/03/16 00:10:50;;;;;;;16.45;2.80;;;10.50;81.20;;;;;;4976840;28;20042;-79
2021/03/16 00:13:16;;;;;;;10.95;2.67;;;10.60;80.70;;;;;;4977675;28;20043;-79
2021/03/16 00:15:42;;;;;;;8.82;2.80;;;10.60;80.50;;;;;;4960554;28;20142;-79
2021/03/16 00:18:14;;;;;;;12.65;3.30;;;10.60;80.70;;;;;;4977770;28;20107;-79
2021/03/16 00:20:41;;;;;;;8.77;2.35;;;10.60;80.60;;;;;;4977483;28;20041;-79
2021/03/16 00:23:07;;;;;;;13.50;2.47;;;10.60;80.50;;;;;;4977552;28;20042;-79
2021/03/16 00:25:33;;;;;;;10.98;2.92;;;10.60;80.60;;;;;;4960399;28;20054;-79
2021/03/16 00:27:59;;;;;;;9.77;2.65;;;10.60;80.50;;;;;;4977462;28;20039;-80
2021/03/16 00:30:25;;;;;;;10.10;2.60;;;10.60;80.70;;;;;;4976517;28;20046;-79
2021/03/16 00:32:51;;;;;;;11.60;3.47;;;10.60;80.70;;;;;;4977421;28;20046;-80
2021/03/16 00:35:17;;;;;;;10.88;2.72;;;10.60;80.80;;;;;;4977844;28;20047;-79
2021/03/16 00:37:43;;;;;;;10.18;2.75;;;10.60;81.10;;;;;;4976199;28;20476;-80
2021/03/16 00:40:10;;;;;;;11.77;3.33;;;10.60;81.10;;;;;;4976186;28;20039;-80
2021/03/16 00:42:36;;;;;;;10.23;2.80;;;10.60;81.40;;;;;;4959877;28;20035;-79
2021/03/16 00:45:05;;;;;;;11.65;3.40;;;10.60;81.30;;;;;;4977417;28;20069;-80
2021/03/16 00:47:30;;;;;;;11.13;3.10;;;10.60;81.50;;;;;;4959687;28;20034;-79
2021/03/16 00:49:56;;;;;;;12.48;3.00;;;10.60;81.60;;;;;;4975301;28;20077;-79
2021/03/16 00:52:22;;;;;;;14.48;2.78;;;10.60;81.50;;;;;;4977080;28;20130;-79
2021/03/16 00:54:48;;;;;;;16.13;2.90;;;10.60;81.60;;;;;;4977036;28;20165;-79
2021/03/16 00:57:14;;;;;;;9.38;2.67;;;10.50;81.70;;;;;;4977113;28;20121;-79
2021/03/16 00:59:40;;;;;;;10.40;3.30;;;10.50;82.00;;;;;;4976554;28;20055;-79
2021/03/16 01:02:07;;;;;;;9.82;2.80;;;10.50;81.90;;;;;;4977057;28;20074;-79
2021/03/16 01:04:33;;;;;;;8.32;2.63;;;10.50;81.80;;;;;;4959791;28;20034;-79
2021/03/16 01:06:59;;;;;;;9.77;2.70;;;10.50;82.20;;;;;;4959596;28;20117;-79
2021/03/16 01:09:25;;;;;;;10.98;3.10;;;10.50;81.90;;;;;;4977235;28;20093;-79
2021/03/16 01:11:50;;;;;;;8.00;3.08;;;10.50;81.80;;;;;;4975823;28;20395;-79
2021/03/16 01:14:17;;;;;;;8.43;2.75;;;10.50;81.80;;;;;;4975565;28;20043;-79
2021/03/16 01:16:42;;;;;;;9.85;3.30;;;10.50;81.60;;;;;;4975768;28;20030;-79
2021/03/16 01:19:08;;;;;;;10.73;3.13;;;10.60;82.30;;;;;;4975407;28;20118;-79
2021/03/16 01:21:35;;;;;;;11.88;2.83;;;10.50;81.90;;;;;;4959592;28;20070;-79
2021/03/16 01:24:01;;;;;;;10.20;3.00;;;10.50;82.00;;;;;;4959151;28;20118;-79
2021/03/16 01:26:26;;;;;;;7.85;2.58;;;10.50;82.00;;;;;;4976465;28;20575;-79
2021/03/16 01:28:52;;;;;;;10.18;2.72;;;10.40;82.20;;;;;;4975076;28;20076;-79
2021/03/16 01:31:18;;;;;;;8.80;2.78;;;10.40;82.30;;;;;;4976603;28;20415;-80
2021/03/16 01:33:44;;;;;;;12.90;2.90;;;10.50;82.20;;;;;;4976375;28;20483;-80
2021/03/16 01:36:10;;;;;;;14.43;3.13;;;10.40;82.30;;;;;;4975490;28;20035;-80
2021/03/16 01:38:36;;;;;;;10.90;3.22;;;10.40;82.40;;;;;;4976332;28;20089;-80
2021/03/16 01:41:02;;;;;;;13.52;3.28;;;10.40;82.70;;;;;;4976250;28;20503;-80
2021/03/16 01:43:30;;;;;;;12.32;3.25;;;10.40;82.70;;;;;;4975957;28;20046;-80
2021/03/16 01:45:57;;;;;;;10.30;2.90;;;10.40;83.10;;;;;;4976355;28;20065;-79
2021/03/16 01:48:33;;;;;;;11.85;3.08;;;10.30;83.40;;;;;;4976162;28;20577;-78
2021/03/16 01:51:06;;;;;;;11.63;2.90;;;10.30;83.60;;;;;;4958613;28;20480;-78
2021/03/16 01:53:32;;;;;;;8.00;2.80;;;10.30;84.10;;;;;;4958593;28;20061;-79
2021/03/16 01:56:01;;;;;;;9.73;3.17;;;10.20;84.10;;;;;;4975785;28;20097;-78
2021/03/16 01:58:26;;;;;;;13.27;3.15;;;10.20;84.00;;;;;;4958321;28;20419;-79
2021/03/16 02:00:52;;;;;;;10.77;2.72;;;10.30;84.00;;;;;;4974272;28;20041;-78
2021/03/16 02:03:18;;;;;;;9.45;2.45;;;10.30;83.90;;;;;;4974197;28;20038;-79
2021/03/16 02:05:45;;;;;;;8.88;2.88;;;10.30;84.00;;;;;;4975840;28;20051;-78
2021/03/16 02:08:35;;;;;;;7.82;2.60;;;10.20;84.40;;;;;;4975619;28;20034;-78
2021/03/16 02:11:07;;;;;;;9.05;2.72;;;10.20;84.20;;;;;;4958006;28;20039;-79
2021/03/16 02:13:39;;;;;;;8.68;3.17;;;10.20;84.30;;;;;;4975815;28;20038;-79
2021/03/16 02:16:13;;;;;;;13.77;3.05;;;10.20;84.50;;;;;;4975823;28;20085;-79
2021/03/16 02:18:43;;;;;;;9.35;2.72;;;10.10;84.40;;;;;;4958265;28;20062;-79
2021/03/16 02:21:22;;;;;;;10.77;3.13;;;10.10;84.60;;;;;;4975321;28;20031;-79
2021/03/16 02:24:07;;;;;;;7.30;3.10;;;10.10;84.70;;;;;;4958165;28;20484;-79
2021/03/16 02:26:36;;;;;;;11.05;3.00;;;10.00;85.10;;;;;;4957952;28;20039;-79
2021/03/16 02:29:07;;;;;;;8.75;3.05;;;10.00;85.30;;;;;;4975658;28;20035;-79
2021/03/16 02:31:36;;;;;;;12.80;3.50;;;10.00;85.70;;;;;;4958077;28;20074;-79
2021/03/16 02:34:04;;;;;;;9.38;2.90;;;9.90;85.90;;;;;;4975382;28;20066;-79
2021/03/16 02:36:32;;;;;;;11.07;3.47;;;9.90;86.20;;;;;;4975263;28;20049;-80
2021/03/16 02:39:00;;;;;;;11.00;2.85;;;9.90;86.50;;;;;;4975444;28;20595;-79
2021/03/16 02:41:28;;;;;;;9.85;3.03;;;9.90;86.70;;;;;;4975478;28;20077;-79
2021/03/16 02:43:54;;;;;;;8.60;3.30;;;10.00;86.60;;;;;;4975132;28;20050;-80
2021/03/16 02:46:21;;;;;;;11.57;3.47;;;10.00;86.60;;;;;;4975554;28;20030;-79
2021/03/16 02:48:48;;;;;;;6.65;3.08;;;10.00;86.70;;;;;;4957591;28;20066;-79
2021/03/16 02:51:16;;;;;;;11.60;3.42;;;10.00;86.90;;;;;;4958113;28;20085;-79
2021/03/16 02:53:42;;;;;;;10.70;3.20;;;10.10;87.00;;;;;;4958133;28;20031;-79
2021/03/16 02:56:10;;;;;;;11.73;3.28;;;10.00;87.10;;;;;;4959034;28;20097;-79
2021/03/16 02:58:36;;;;;;;9.65;3.10;;;10.10;87.20;;;;;;4966367;28;20105;-79
2021/03/16 03:01:02;;;;;;;8.77;3.47;;;10.10;87.00;;;;;;4986984;28;20037;-80
2021/03/16 03:03:36;;;;;;;13.05;4.22;;;10.10;87.40;;;;;;4982696;28;20023;-80
2021/03/16 03:06:03;;;;;;;13.70;3.33;;;10.10;87.20;;;;;;4970486;28;20047;-79
2021/03/16 03:08:31;;;;;;;11.55;3.83;;;10.10;87.30;;;;;;4958219;28;20506;-79
2021/03/16 03:10:57;;;;;;;13.30;3.50;;;10.20;87.30;;;;;;4975259;28;20038;-79
2021/03/16 03:13:24;;;;;;;11.80;3.50;;;10.20;87.10;;;;;;4976823;28;20069;-79
2021/03/16 03:15:49;;;;;;;11.98;3.90;;;10.20;87.40;;;;;;4979203;28;20049;-79
2021/03/16 03:18:15;;;;;;;13.77;3.58;;;10.10;87.70;;;;;;4979511;28;20035;-79
2021/03/16 03:20:41;;;;;;;13.18;3.33;;;10.10;88.10;;;;;;4961616;28;20415;-79
2021/03/16 03:23:22;;;;;;;12.02;3.40;;;10.10;88.30;;;;;;4961598;28;20046;-79
2021/03/16 03:26:04;;;;;;;17.80;4.38;;;10.10;88.40;;;;;;4979050;28;20049;-79
2021/03/16 03:28:33;;;;;;;13.48;4.32;;;10.10;88.40;;;;;;4978853;28;20046;-79
2021/03/16 03:31:06;;;;;;;13.80;3.92;;;10.10;88.50;;;;;;4961640;28;20122;-79
2021/03/16 03:33:33;;;;;;;10.68;3.65;;;10.10;88.40;;;;;;4961676;28;20504;-79
2021/03/16 03:36:02;;;;;;;14.73;3.95;;;10.10;88.40;;;;;;4961812;28;20074;-79
2021/03/16 03:38:30;;;;;;;11.02;3.50;;;10.10;88.20;;;;;;4961384;28;20047;-79
2021/03/16 03:40:59;;;;;;;10.93;3.40;;;10.20;88.30;;;;;;4978752;28;20031;-79
2021/03/16 03:43:26;;;;;;;11.75;3.70;;;10.20;88.20;;;;;;4960962;28;20105;-79
2021/03/16 03:45:53;;;;;;;10.77;3.65;;;10.20;88.30;;;;;;4978976;28;20101;-79
2021/03/16 03:48:21;;;;;;;12.02;3.80;;;10.20;88.40;;;;;;4961138;28;20384;-79
2021/03/16 03:50:51;;;;;;;13.40;3.30;;;10.30;88.70;;;;;;4978629;28;20039;-79
2021/03/16 03:53:18;;;;;;;11.10;3.47;;;10.30;88.60;;;;;;4961320;28;20047;-79
2021/03/16 03:55:46;;;;;;;10.98;4.15;;;10.30;88.90;;;;;;4962078;28;20427;-79
2021/03/16 03:58:13;;;;;;;15.10;4.30;;;10.30;88.90;;;;;;4960767;28;20030;-79
2021/03/16 04:00:41;;;;;;;10.15;3.05;;;10.30;88.80;;;;;;4983117;28;20154;-79
2021/03/16 04:03:07;;;;;;;10.43;3.33;;;10.30;88.90;;;;;;4961419;28;20062;-79
2021/03/16 04:05:34;;;;;;;9.27;2.95;;;10.30;89.20;;;;;;4977828;28;20109;-79
2021/03/16 04:08:02;;;;;;;9.90;3.35;;;10.30;89.10;;;;;;4963560;28;20049;-79
2021/03/16 04:10:28;;;;;;;10.40;3.40;;;10.30;88.90;;;;;;4973738;28;20047;-79
2021/03/16 04:12:56;;;;;;;9.35;3.78;;;10.30;88.80;;;;;;4991585;28;20038;-79
2021/03/16 04:15:24;;;;;;;9.70;3.65;;;10.30;88.60;;;;;;4973585;28;20062;-79
2021/03/16 04:17:50;;;;;;;8.70;3.28;;;10.30;88.50;;;;;;4971699;28;20038;-79
2021/03/16 04:20:16;;;;;;;14.73;4.18;;;10.30;88.80;;;;;;4988532;28;20039;-79
2021/03/16 04:22:43;;;;;;;12.02;3.97;;;10.20;89.00;;;;;;4989815;28;20047;-79
2021/03/16 04:25:10;;;;;;;13.32;3.38;;;10.20;88.90;;;;;;4972316;28;20058;-79
2021/03/16 04:27:37;;;;;;;11.10;3.33;;;10.20;89.10;;;;;;4974328;28;20066;-80
2021/03/16 04:30:08;;;;;;;14.57;3.70;;;10.10;89.40;;;;;;4973860;28;20564;-80
2021/03/16 04:32:34;;;;;;;13.85;3.85;;;10.00;89.80;;;;;;4989029;28;20050;-79
2021/03/16 04:35:01;;;;;;;9.55;3.22;;;10.00;90.10;;;;;;4986919;28;20038;-79
2021/03/16 04:37:26;;;;;;;14.23;3.95;;;9.90;90.20;;;;;;4970573;28;20058;-79
2021/03/16 04:39:53;;;;;;;11.30;3.60;;;9.90;90.50;;;;;;4988603;28;20038;-79
2021/03/16 04:42:18;;;;;;;9.65;3.35;;;9.90;90.70;;;;;;4972811;28;20038;-78
2021/03/16 04:44:45;;;;;;;13.45;3.90;;;9.80;90.90;;;;;;4990416;28;20081;-79
2021/03/16 04:47:11;;;;;;;12.48;4.00;;;9.70;91.20;;;;;;4974960;28;20042;-79
2021/03/16 04:49:37;;;;;;;16.30;3.58;;;9.70;91.30;;;;;;4992264;28;20558;-79
2021/03/16 04:52:03;;;;;;;9.23;3.80;;;9.70;91.50;;;;;;4992922;28;20051;-79
2021/03/16 04:54:29;;;;;;;8.40;3.92;;;9.60;91.70;;;;;;4989262;28;20043;-79
2021/03/16 04:56:55;;;;;;;12.85;3.60;;;9.60;91.60;;;;;;4971496;28;20099;-80
2021/03/16 04:59:20;;;;;;;9.35;3.97;;;9.50;91.80;;;;;;4986125;28;20051;-79
2021/03/16 05:01:46;;;;;;;9.88;4.05;;;9.50;91.80;;;;;;4970627;28;20085;-79
2021/03/16 05:04:12;;;;;;;13.18;3.92;;;9.50;92.00;;;;;;4987610;28;20039;-79
2021/03/16 05:06:38;;;;;;;12.65;4.45;;;9.50;92.00;;;;;;4988795;28;20046;-79
2021/03/16 05:09:04;;;;;;;13.50;4.55;;;9.60;92.10;;;;;;4971846;28;20447;-79
2021/03/16 05:11:35;;;;;;;17.08;4.65;;;9.50;92.00;;;;;;4990518;28;20073;-79
2021/03/16 05:14:01;;;;;;;12.20;3.60;;;9.50;92.00;;;;;;4982208;28;20022;-79
2021/03/16 05:16:27;;;;;;;11.38;4.05;;;9.50;92.00;;;;;;4983651;28;20097;-80
2021/03/16 05:18:53;;;;;;;16.63;5.15;;;9.50;92.10;;;;;;5001186;28;20046;-80
2021/03/16 05:21:18;;;;;;;14.32;4.45;;;9.50;92.20;;;;;;5001144;28;20019;-79
2021/03/16 05:23:44;;;;;;;18.38;4.57;;;9.40;92.20;;;;;;5001205;28;20022;-81
2021/03/16 05:26:11;;;;;;;11.85;3.90;;;9.40;92.30;;;;;;5000957;28;20027;-80
2021/03/16 05:28:37;;;;;;;12.68;4.38;;;9.50;92.30;;;;;;4984176;28;20026;-80
2021/03/16 05:31:02;;;;;;;12.80;4.53;;;9.50;92.40;;;;;;5000884;28;20108;-80
2021/03/16 05:33:28;;;;;;;13.65;4.20;;;9.40;92.40;;;;;;5000733;28;20039;-80
2021/03/16 05:35:54;;;;;;;12.60;4.47;;;9.40;92.50;;;;;;5000591;28;20050;-79
2021/03/16 05:38:20;;;;;;;15.77;4.70;;;9.40;92.50;;;;;;5000817;28;20038;-80
2021/03/16 05:40:46;;;;;;;14.63;4.63;;;9.40;92.60;;;;;;4983838;28;20026;-80
2021/03/16 05:43:12;;;;;;;11.95;4.60;;;9.40;92.70;;;;;;4983604;28;20027;-74
2021/03/16 05:45:39;;;;;;;12.93;4.57;;;9.40;92.80;;;;;;4999948;28;20045;-78
2021/03/16 05:48:09;;;;;;;12.35;4.25;;;9.30;92.70;;;;;;4983811;28;20054;-76
2021/03/16 05:50:35;;;;;;;12.73;4.88;;;9.30;92.80;;;;;;4983376;28;20057;-78
2021/03/16 05:53:05;;;;;;;8.68;4.63;;;9.30;92.90;;;;;;4983217;28;20074;-76
2021/03/16 05:55:32;;;;;;;13.23;4.88;;;9.30;92.90;;;;;;4982985;28;20119;-76
2021/03/16 05:57:58;;;;;;;11.18;4.55;;;9.30;92.90;;;;;;4982760;28;20050;-73
2021/03/16 06:00:24;;;;;;;15.57;4.93;;;9.40;92.90;;;;;;4981957;28;20058;-75
2021/03/16 06:02:50;;;;;;;12.18;4.80;;;9.30;92.90;;;;;;4999433;28;20043;-74
2021/03/16 06:05:16;;;;;;;11.93;4.45;;;9.30;93.00;;;;;;4982394;28;20097;-72
2021/03/16 06:07:52;;;;;;;9.10;4.22;;;9.30;93.10;;;;;;4999594;28;20094;-71
2021/03/16 06:10:20;;;;;;;13.27;5.15;;;9.30;93.00;;;;;;5000108;28;20038;-75
2021/03/16 06:12:47;;;;;;;10.27;4.32;;;9.30;93.10;;;;;;4983027;28;20046;-76
2021/03/16 06:15:22;;;;;;;9.70;4.05;;;9.30;93.20;;;;;;4982481;28;20066;-75
2021/03/16 06:17:53;;;;;;;14.13;4.47;;;9.30;93.20;;;;;;4998460;28;20562;-74
2021/03/16 06:20:35;;;;;;;11.35;4.63;;;9.30;93.30;;;;;;4976350;28;20066;-77
2021/03/16 06:23:11;;;;;;;11.63;4.88;;;9.20;93.30;;;;;;4976828;28;20034;-76
2021/03/16 06:25:42;;;;;;;15.20;4.90;;;9.30;93.50;;;;;;4959966;28;20088;-77
2021/03/16 06:28:12;;;;;;;14.25;4.68;;;9.30;93.60;;;;;;4961128;28;20074;-76
2021/03/16 06:30:39;;;;;;;12.32;3.88;;;9.40;93.70;;;;;;4959204;28;20030;-78
2021/03/16 06:33:27;;;;;;;11.38;4.30;;;9.50;93.40;;;;;;4959129;28;20050;-76
2021/03/16 06:36:07;;;;;;;10.15;4.18;;;9.60;93.30;;;;;;4974949;28;20039;-76
2021/03/16 06:38:36;;;;;;;10.00;3.90;;;9.60;93.20;;;;;;4958390;28;20043;-76
2021/03/16 06:41:12;;;;;;;13.32;4.25;;;9.70;93.10;;;;;;4958821;28;20099;-80
2021/03/16 06:43:39;;;;;;;14.13;3.97;;;9.70;93.10;;;;;;4974451;28;20097;-79
2021/03/16 06:46:05;;;;;;;14.13;4.10;;;9.70;93.00;;;;;;4961459;28;20046;-80
2021/03/16 06:48:38;;;;;;;9.40;3.30;;;9.80;93.00;;;;;;4961801;28;20062;-79
2021/03/16 06:51:14;;;;;;;10.02;3.60;;;9.90;93.10;;;;;;4961184;28;20041;-79
2021/03/16 06:53:40;;;;;;;10.52;3.30;;;9.90;93.00;;;;;;4979514;28;20031;-78
2021/03/16 06:56:07;;;;;;;13.07;3.38;;;9.90;93.00;;;;;;4962119;28;20049;-79
2021/03/16 06:58:36;;;;;;;13.70;3.65;;;9.90;93.00;;;;;;4961360;28;20517;-79
2021/03/16 07:01:13;;;;;;;9.85;3.40;;;10.00;93.10;;;;;;4982383;28;20055;-79
2021/03/16 07:03:40;;;;;;;13.77;3.58;;;10.00;93.00;;;;;;4971023;28;20035;-79
2021/03/16 07:06:12;;;;;;;13.43;3.25;;;10.00;93.10;;;;;;4960699;28;20395;-78
2021/03/16 07:08:39;;;;;;;18.00;4.53;;;10.10;93.00;;;;;;4980072;28;20460;-79
2021/03/16 07:11:15;;;;;;;10.65;3.08;;;10.10;93.00;;;;;;4967148;28;20178;-80
2021/03/16 07:13:42;;;;;;;15.38;4.28;;;10.10;93.00;;;;;;4987739;28;20042;-79
2021/03/16 07:16:09;;;;;;;18.15;4.10;;;10.10;93.00;;;;;;4957841;28;20034;-79
2021/03/16 07:18:39;;;;;;;23.77;4.78;;;10.10;93.00;;;;;;4975262;28;20487;-79
2021/03/16 07:21:07;;;;;;;10.68;2.95;;;10.10;93.00;;;;;;4958392;28;20034;-79
2021/03/16 07:23:40;;;;;;;19.92;3.95;;;10.10;93.00;;;;;;4957928;28;20034;-79
2021/03/16 07:26:07;;;;;;;16.38;3.58;;;10.20;92.90;;;;;;4975475;28;20037;-79
2021/03/16 07:28:33;;;;;;;9.13;2.63;;;10.30;92.80;;;;;;4957696;28;20046;-79
2021/03/16 07:31:00;;;;;;;13.38;3.17;;;10.40;92.70;;;;;;4958524;28;20035;-79
2021/03/16 07:33:30;;;;;;;8.25;2.45;;;10.50;92.50;;;;;;4974896;28;20042;-79
2021/03/16 07:35:57;;;;;;;13.15;2.67;;;10.60;92.40;;;;;;4958124;28;20039;-80
2021/03/16 07:38:23;;;;;;;14.60;2.80;;;10.60;92.30;;;;;;4958060;28;20038;-79
2021/03/16 07:40:51;;;;;;;20.25;3.40;;;10.70;92.20;;;;;;4975347;28;20070;-79
2021/03/16 07:43:17;;;;;;;10.90;2.95;;;10.70;92.20;;;;;;4958050;28;20081;-79
2021/03/16 07:45:44;;;;;;;11.40;3.15;;;10.90;92.10;;;;;;4958063;28;20043;-79
2021/03/16 07:48:29;;;;;;;13.20;3.25;;;10.90;91.80;;;;;;4975624;28;20043;-80
2021/03/16 07:50:55;;;;;;;13.98;3.17;;;11.10;91.80;;;;;;4957565;28;20046;-80
2021/03/16 07:53:25;;;;;;;13.13;3.50;;;11.20;91.60;;;;;;4957775;28;20042;-79
2021/03/16 07:55:51;;;;;;;19.92;4.25;;;11.30;91.30;;;;;;4958032;28;20031;-80
2021/03/16 07:58:25;;;;;;;17.30;4.00;;;11.30;91.30;;;;;;4975073;28;20053;-80
2021/03/16 08:00:51;;;;;;;14.57;3.55;;;11.30;91.40;;;;;;4960009;28;20173;-80
2021/03/16 08:03:24;;;;;;;17.35;4.05;;;11.40;91.20;;;;;;4961265;28;20050;-78
2021/03/16 08:05:51;;;;;;;12.65;4.10;;;11.50;90.80;;;;;;4961787;28;20092;-79
2021/03/16 08:08:18;;;;;;;14.73;3.95;;;11.50;90.50;;;;;;4960858;28;20049;-79
2021/03/16 08:10:45;;;;;;;13.73;4.10;;;11.50;90.40;;;;;;4961457;28;20398;-79
2021/03/16 08:13:19;;;;;;;16.83;4.35;;;11.50;90.30;;;;;;4960912;28;20488;-79
2021/03/16 08:15:47;;;;;;;16.05;4.00;;;11.50;90.30;;;;;;4978434;28;20109;-79
2021/03/16 08:18:14;;;;;;;17.25;4.40;;;11.60;90.20;;;;;;4961147;28;20539;-79
2021/03/16 08:20:43;;;;;;;18.73;4.97;;;11.70;90.10;;;;;;4961474;28;20031;-79
2021/03/16 08:23:13;;;;;;;14.88;4.57;;;11.80;90.20;;;;;;4960927;28;20043;-79
2021/03/16 08:25:42;;;;;;;18.33;4.60;;;12.00;89.30;;;;;;4978117;28;20031;-80
2021/03/16 08:28:15;;;;;;;12.20;4.75;;;12.10;87.70;;;;;;4960672;28;20074;-80
2021/03/16 08:30:41;;;;;;;16.52;4.63;;;12.10;87.10;;;;;;4960825;28;20038;-79
2021/03/16 08:33:15;;;;;;;14.95;5.85;;;12.00;87.30;;;;;;4978314;28;20049;-80
2021/03/16 08:35:52;;;;;;;14.23;5.38;;;12.00;87.20;;;;;;4961298;28;20038;-79
2021/03/16 08:38:27;;;;;;;17.10;4.75;;;12.20;87.20;;;;;;4960700;28;20066;-79
2021/03/16 08:41:18;;;;;;;14.57;4.70;;;12.50;86.00;;;;;;4960419;28;20066;-80
2021/03/16 08:43:49;;;;;;;12.07;4.57;;;12.80;84.30;;;;;;4960427;28;20483;-79
2021/03/16 08:46:30;;;;;;;15.25;4.53;;;12.90;83.10;;;;;;4960739;28;20073;-79
2021/03/16 08:48:56;;;;;;;16.50;4.60;;;12.90;83.30;;;;;;4960129;28;20050;-79
2021/03/16 08:51:26;;;;;;;10.15;3.92;;;12.80;84.10;;;;;;4960296;28;20049;-79
2021/03/16 08:53:52;;;;;;;12.18;4.03;;;12.60;83.90;;;;;;4961165;28;20034;-79
2021/03/16 08:56:20;;;;;;;14.00;4.90;;;12.60;84.80;;;;;;4960309;28;20381;-80
2021/03/16 08:58:46;;;;;;;8.52;3.65;;;12.70;83.90;;;;;;4960229;28;20150;-80
2021/03/16 09:01:12;;;;;;;13.30;4.70;;;12.80;84.10;;;;;;4978137;28;20109;-80
2021/03/16 09:03:38;;;;;;;10.23;4.03;;;12.90;83.70;;;;;;4960165;28;20074;-79
2021/03/16 09:06:04;;;;;;;13.05;5.10;;;12.90;83.70;;;;;;4959836;28;20506;-80
2021/03/16 09:08:30;;;;;;;11.98;4.40;;;12.90;83.50;;;;;;4961769;28;20525;-79
2021/03/16 09:10:56;;;;;;;14.18;5.25;;;13.10;83.10;;;;;;4959414;28;20034;-80
2021/03/16 09:13:29;;;;;;;12.27;4.93;;;13.20;82.60;;;;;;4976885;28;20074;-79
2021/03/16 09:15:55;;;;;;;15.48;5.47;;;13.40;82.30;;;;;;4960245;28;20035;-79
2021/03/16 09:18:22;;;;;;;11.88;4.32;;;13.50;80.90;;;;;;4959092;28;20496;-80
2021/03/16 09:20:48;;;;;;;12.20;4.60;;;13.60;80.70;;;;;;4959712;28;20046;-80
2021/03/16 09:23:14;;;;;;;15.05;5.38;;;13.80;80.40;;;;;;4959762;28;20046;-79
2021/03/16 09:25:45;;;;;;;9.90;4.70;;;14.00;79.60;;;;;;4959566;28;20395;-80
2021/03/16 09:28:13;;;;;;;17.13;5.20;;;14.20;79.00;;;;;;4977488;28;20039;-80
2021/03/16 09:30:44;;;;;;;13.93;4.85;;;14.20;78.30;;;;;;4959303;28;20039;-80
2021/03/16 09:33:12;;;;;;;14.13;4.82;;;14.20;77.90;;;;;;4976584;28;20046;-80
2021/03/16 09:35:38;;;;;;;11.50;4.63;;;14.30;76.90;;;;;;4959537;28;20542;-79
2021/03/16 09:38:06;;;;;;;12.23;5.25;;;14.20;75.20;;;;;;4976530;28;20039;-79
2021/03/16 09:40:36;;;;;;;12.30;4.60;;;14.10;77.00;;;;;;4959344;28;20488;-79
2021/03/16 09:43:03;;;;;;;12.27;4.63;;;14.10;77.00;;;;;;4958854;28;20045;-78
2021/03/16 09:45:31;;;;;;;10.88;4.57;;;14.20;76.90;;;;;;4959296;28;20066;-78
2021/03/16 09:48:00;;;;;;;15.38;4.63;;;14.10;77.50;;;;;;4959731;28;20073;-78
2021/03/16 09:50:32;;;;;;;11.20;4.85;;;14.20;78.10;;;;;;4976738;28;20053;-78
2021/03/16 09:53:05;;;;;;;8.18;4.40;;;14.40;77.40;;;;;;4958864;28;20046;-78
2021/03/16 09:55:32;;;;;;;15.73;4.93;;;14.40;77.20;;;;;;4961061;28;20035;-78
2021/03/16 09:57:58;;;;;;;12.35;4.97;;;14.30;77.40;;;;;;4958662;28;20042;-78
2021/03/16 10:00:27;;;;;;;12.82;4.60;;;14.30;77.90;;;;;;4976179;28;20213;-78
2021/03/16 10:03:10;;;;;;;11.32;4.15;;;14.10;78.60;;;;;;4976441;28;20078;-79
2021/03/16 10:05:36;;;;;;;15.73;4.40;;;14.20;77.60;;;;;;4978612;28;20046;-78
2021/03/16 10:08:02;;;;;;;16.10;4.18;;;14.40;76.70;;;;;;4961125;28;20053;-78
2021/03/16 10:10:33;;;;;;;10.23;3.80;;;14.30;75.80;;;;;;4958777;28;20391;-78
2021/03/16 10:13:00;;;;;;;8.82;3.80;;;14.40;75.50;;;;;;4977130;28;20051;-78
2021/03/16 10:15:29;;;;;;;11.10;3.42;;;14.60;74.60;;;;;;4976772;28;20038;-78
2021/03/16 10:18:03;;;;;;;14.00;4.05;;;14.60;74.00;;;;;;4958103;28;20042;-78
2021/03/16 10:20:34;;;;;;;;;;;14.70;73.70;;;;;;4960357;28;20119;-78
2021/03/16 10:23:05;;;;;;;8.60;3.50;;;14.40;73.10;;;;;;4959128;28;20088;-78
2021/03/16 10:25:32;;;;;;;10.90;3.13;;;14.40;74.30;;;;;;4977293;28;20061;-78
2021/03/16 10:28:06;;;;;;;8.50;3.10;;;14.50;73.50;;;;;;4960025;28;20047;-78
2021/03/16 10:30:44;;;;;;;7.78;3.40;;;14.50;73.20;;;;;;4976646;28;20047;-78
2021/03/16 10:33:12;;;;;;;8.13;3.13;;;14.70;73.20;;;;;;4960396;28;20038;-78
2021/03/16 10:35:42;;;;;;;9.20;3.40;;;15.10;71.80;;;;;;4977149;28;20074;-78
2021/03/16 10:38:08;;;;;;;12.23;3.25;;;15.30;70.30;;;;;;4976179;28;20042;-77
2021/03/16 10:40:35;;;;;;;10.63;3.67;;;15.20;70.60;;;;;;4974809;28;20074;-79
2021/03/16 10:43:02;;;;;;;11.15;3.47;;;15.00;71.10;;;;;;4959934;28;20042;-77
2021/03/16 10:45:28;;;;;;;10.57;3.38;;;14.90;71.60;;;;;;4960482;28;20038;-77
2021/03/16 10:47:54;;;;;;;9.02;3.05;;;14.90;71.40;;;;;;4959261;28;20081;-77
2021/03/16 10:50:20;;;;;;;8.13;3.10;;;15.00;70.40;;;;;;4976321;28;20039;-77
2021/03/16 10:52:46;;;;;;;10.30;3.88;;;14.90;70.80;;;;;;4975723;28;20101;-78
2021/03/16 10:55:22;;;;;;;9.13;3.50;;;14.70;71.40;;;;;;4976158;28;20444;-80
2021/03/16 10:57:47;;;;;;;8.57;2.90;;;14.50;72.40;;;;;;4975018;28;20039;-79
2021/03/16 11:00:14;;;;;;;8.65;3.65;;;14.50;72.70;;;;;;4975890;28;20054;-78
2021/03/16 11:02:40;;;;;;;7.20;3.25;;;14.40;73.10;;;;;;4976165;28;20070;-78
2021/03/16 11:05:07;;;;;;;7.05;3.40;;;14.50;70.70;;;;;;4958883;28;20377;-78
2021/03/16 11:07:33;;;;;;;9.93;2.92;;;14.90;68.80;;;;;;4957403;28;20059;-77
2021/03/16 11:09:59;;;;;;;7.60;2.90;;;15.20;67.30;;;;;;4959160;28;20046;-78
2021/03/16 11:12:25;;;;;;;11.00;3.72;;;15.30;69.90;;;;;;4974291;28;20372;-79
2021/03/16 11:14:51;;;;;;;14.32;3.15;;;15.50;70.40;;;;;;4957855;28;20125;-80
2021/03/16 11:17:16;;;;;;;12.90;4.03;;;15.20;71.00;;;;;;4976113;28;20062;-79
2021/03/16 11:19:42;;;;;;;9.00;3.63;;;15.10;71.30;;;;;;4973898;28;20433;-78
2021/03/16 11:22:08;;;;;;;8.73;3.25;;;15.00;71.30;;;;;;4975468;28;20050;-79
2021/03/16 11:24:34;;;;;;;9.80;3.17;;;15.10;71.70;;;;;;4974948;28;20053;-79
2021/03/16 11:27:01;;;;;;;7.97;3.17;;;15.20;71.00;;;;;;4975827;28;20050;-78
2021/03/16 11:29:27;;;;;;;5.93;3.03;;;15.20;71.90;;;;;;4973412;28;20074;-78
2021/03/16 11:31:53;;;;;;;9.15;2.97;;;15.40;70.40;;;;;;4975779;28;20078;-79
2021/03/16 11:34:18;;;;;;;7.78;2.58;;;15.70;69.10;;;;;;4980804;28;20089;-76
2021/03/16 11:36:44;;;;;;;9.45;3.53;;;15.50;68.60;;;;;;4981781;28;20110;-81
2021/03/16 11:39:10;;;;;;;9.13;3.10;;;15.10;69.40;;;;;;4960665;28;20035;-79
2021/03/16 11:41:36;;;;;;;8.00;2.70;;;15.30;68.60;;;;;;4961047;28;20042;-79
2021/03/16 11:44:02;;;;;;;12.23;3.03;;;15.80;66.60;;;;;;4960946;28;20045;-78
2021/03/16 11:46:28;;;;;;;7.78;2.90;;;16.30;64.70;;;;;;4961508;28;20244;-79
2021/03/16 11:48:54;;;;;;;8.75;3.10;;;16.40;64.70;;;;;;4962856;28;20066;-79
2021/03/16 11:51:20;;;;;;;9.85;2.67;;;16.30;64.60;;;;;;4978429;28;20046;-79
2021/03/16 11:53:46;;;;;;;6.20;2.42;;;16.20;64.20;;;;;;4979022;28;20483;-79
2021/03/16 11:56:12;;;;;;;6.75;2.88;;;15.90;65.00;;;;;;4974047;28;20069;-80
2021/03/16 11:58:38;;;;;;;10.43;3.17;;;15.90;64.30;;;;;;4958579;28;20058;-81
2021/03/16 12:01:04;;;;;;;7.28;2.70;;;16.10;64.20;;;;;;4977263;28;20050;-79
2021/03/16 12:03:30;;;;;;;7.78;2.92;;;16.60;63.60;;;;;;4962538;28;20612;-79
2021/03/16 12:05:56;;;;;;;13.38;2.95;;;16.60;63.10;;;;;;4975599;28;20515;-84
2021/03/16 12:08:22;;;;;;;8.68;3.13;;;16.40;64.50;;;;;;4975114;28;20038;-83
2021/03/16 12:10:48;;;;;;;9.40;2.65;;;16.40;64.90;;;;;;4960290;28;20062;-80
2021/03/16 12:13:15;;;;;;;7.90;2.65;;;16.80;63.00;;;;;;4977326;28;20504;-80
2021/03/16 12:15:40;;;;;;;7.00;2.80;;;16.90;64.30;;;;;;4943430;28;20492;-85
2021/03/16 12:18:06;;;;;;;9.60;3.03;;;16.70;65.00;;;;;;4976564;28;20038;-78
2021/03/16 12:20:46;;;;;;;7.82;2.88;;;16.60;65.30;;;;;;4975058;28;20495;-80
2021/03/16 12:23:12;;;;;;;8.18;2.63;;;16.50;66.00;;;;;;4955262;28;20053;-79
2021/03/16 12:25:38;;;;;;;11.77;8.82;;;16.10;65.90;;;;;;4968265;28;20073;-80
2021/03/16 12:28:04;;;;;;;12.50;2.70;;;15.90;66.90;;;;;;4966498;28;20078;-82
2021/03/16 12:30:30;;;;;;;6.03;2.15;;;16.00;66.40;;;;;;4975686;28;20505;-81
2021/03/16 12:32:56;;;;;;;8.40;2.22;;;15.90;66.90;;;;;;4960591;28;20041;-85
2021/03/16 12:35:22;;;;;;;8.15;2.38;;;15.80;67.70;;;;;;4977935;28;20516;-85
2021/03/16 12:37:48;;;;;;;7.95;1.95;;;15.90;67.30;;;;;;4959805;28;20037;-86
2021/03/16 12:40:14;;;;;;;5.85;1.63;;;15.90;67.70;;;;;;4977831;28;20050;-85
2021/03/16 12:42:40;;;;;;;5.15;1.75;;;15.90;67.00;;;;;;4976854;28;20129;-85
2021/03/16 12:45:07;;;;;;;9.20;1.58;;;15.90;67.20;;;;;;4978288;28;20043;-84
2021/03/16 12:47:33;;;;;;;10.23;1.55;;;15.70;67.80;;;;;;4959410;28;20488;-85